createdAt,value
2022-08-07T00:00:25.778Z,59.57
2022-08-07T00:02:53.929Z,60.43
2022-08-07T00:05:23.758Z,60.97
2022-08-07T00:07:59.778Z,59.61
2022-08-07T00:10:30.580Z,59.46
2022-08-07T00:13:09.872Z,59.28
2022-08-07T00:15:51.268Z,59.26
2022-08-07T00:18:24.549Z,59.47
2022-08-07T00:21:01.926Z,59.24
2022-08-07T00:23:31.777Z,59.88
2022-08-07T00:26:18.886Z,59.43
2022-08-07T00:28:56.428Z,58.50
2022-08-07T00:31:37.397Z,58.55
2022-08-07T00:34:08.801Z,58.18
2022-08-07T00:36:42.705Z,58.51
2022-08-07T00:39:12.863Z,58.95
2022-08-07T00:42:01.728Z,57.97
2022-08-07T00:44:35.070Z,57.24
2022-08-07T00:47:15.627Z,58.13
2022-08-07T00:50:20.271Z,58.84
2022-08-07T00:52:47.288Z,57.94
2022-08-07T00:55:17.242Z,59.88
2022-08-07T00:57:55.776Z,59.97
2022-08-07T01:00:23.745Z,59.70
2022-08-07T01:02:51.759Z,59.60
2022-08-07T01:05:19.984Z,59.57
2022-08-07T01:07:52.304Z,57.71
2022-08-07T01:10:20.804Z,60.61
2022-08-07T01:12:53.553Z,60.16
2022-08-07T01:15:35.996Z,58.13
2022-08-07T01:18:10.946Z,59.09
2022-08-07T01:20:57.342Z,59.81
2022-08-07T01:23:38.006Z,59.76
2022-08-07T01:26:08.319Z,59.08
2022-08-07T01:28:46.071Z,58.30
2022-08-07T01:31:17.943Z,59.48
2022-08-07T01:33:53.544Z,57.10
2022-08-07T01:36:33.587Z,58.25
2022-08-07T01:39:09.441Z,58.05
2022-08-07T01:41:55.066Z,57.37
2022-08-07T01:44:27.458Z,57.47
2022-08-07T01:46:55.481Z,57.19
2022-08-07T01:49:24.232Z,58.83
2022-08-07T01:52:03.652Z,59.20
2022-08-07T01:54:36.783Z,58.98
2022-08-07T01:57:08.457Z,57.86
2022-08-07T01:59:43.821Z,59.62
2022-08-07T02:02:32.976Z,58.09
2022-08-07T02:05:06.621Z,58.06
2022-08-07T02:07:49.967Z,57.39
2022-08-07T02:10:22.196Z,58.98
2022-08-07T02:12:50.473Z,59.28
2022-08-07T02:15:21.300Z,59.28
2022-08-07T02:17:51.988Z,59.55
2022-08-07T02:20:23.815Z,60.57
2022-08-07T02:22:55.330Z,60.53
2022-08-07T02:26:10.110Z,59.79
2022-08-07T02:28:11.668Z,60.54
2022-08-07T02:30:39.779Z,59.79
2022-08-07T02:33:10.447Z,60.48
2022-08-07T02:36:29.408Z,59.68
2022-08-07T02:38:31.784Z,59.15
2022-08-07T02:41:00.942Z,58.73
2022-08-07T02:43:32.159Z,58.97
2022-08-07T02:46:02.116Z,58.99
2022-08-07T02:48:30.939Z,60.75
2022-08-07T02:50:59.925Z,58.73
2022-08-07T02:53:38.337Z,59.12
2022-08-07T02:56:13.063Z,59.13
2022-08-07T02:58:53.953Z,59.42
2022-08-07T03:01:35.510Z,58.68
2022-08-07T03:04:07.625Z,58.92
2022-08-07T03:06:44.830Z,60.04
2022-08-07T03:09:14.059Z,60.87
2022-08-07T03:11:52.662Z,60.25
2022-08-07T03:14:26.392Z,59.31
2022-08-07T03:16:56.559Z,59.10
2022-08-07T03:19:24.408Z,59.66
2022-08-07T03:21:57.318Z,58.28
2022-08-07T03:24:28.066Z,61.44
2022-08-07T03:26:59.724Z,61.16
2022-08-07T03:29:37.388Z,61.42
2022-08-07T03:32:08.311Z,59.63
2022-08-07T03:34:39.123Z,59.82
2022-08-07T03:37:12.441Z,60.61
2022-08-07T03:39:46.393Z,60.62
2022-08-07T03:42:27.631Z,61.48
2022-08-07T03:44:57.942Z,60.93
2022-08-07T03:47:27.938Z,59.61
2022-08-07T03:49:57.748Z,61.53
2022-08-07T03:52:27.453Z,60.63
2022-08-07T03:55:07.360Z,59.62
2022-08-07T03:58:33.366Z,57.62
2022-08-07T04:00:30.403Z,59.05
2022-08-07T04:03:04.439Z,58.69
2022-08-07T04:05:40.163Z,59.12
2022-08-07T04:08:11.386Z,60.04
2022-08-07T04:10:42.590Z,60.01
2022-08-07T04:13:24.337Z,60.14
2022-08-07T04:15:55.708Z,59.41
2022-08-07T04:18:57.519Z,59.27
2022-08-07T04:21:12.903Z,57.95
2022-08-07T04:24:07.378Z,57.46
2022-08-07T04:26:32.013Z,59.98
2022-08-07T04:29:00.374Z,59.79
2022-08-07T04:31:38.851Z,60.73
2022-08-07T04:34:23.907Z,60.69
2022-08-07T04:36:51.788Z,59.83
2022-08-07T04:39:25.870Z,60.64
2022-08-07T04:41:54.159Z,60.10
2022-08-07T04:44:21.901Z,59.02
2022-08-07T04:47:07.811Z,59.64
2022-08-07T04:50:03.721Z,60.42
2022-08-07T04:52:51.201Z,60.62
2022-08-07T04:58:10.234Z,59.38
2022-08-07T05:00:09.419Z,61.23
2022-08-07T05:02:16.914Z,62.47
2022-08-07T05:05:11.506Z,59.83
2022-08-07T05:08:12.492Z,60.04
2022-08-07T05:10:45.732Z,60.63
2022-08-07T05:14:52.166Z,59.42
2022-08-07T05:16:12.450Z,61.00
2022-08-07T05:18:53.717Z,59.27
2022-08-07T05:22:00.106Z,59.32
2022-08-07T05:24:12.312Z,60.08
2022-08-07T05:26:39.980Z,59.18
2022-08-07T05:29:08.153Z,59.31
2022-08-07T05:31:38.630Z,60.47
2022-08-07T05:34:12.234Z,59.23
2022-08-07T05:36:42.053Z,57.67
2022-08-07T05:40:13.629Z,56.67
2022-08-07T05:42:02.762Z,56.72
2022-08-07T05:44:34.472Z,55.37
2022-08-07T05:47:18.395Z,55.71
2022-08-07T05:49:49.934Z,57.62
2022-08-07T05:52:32.187Z,55.98
2022-08-07T05:55:07.238Z,53.88
2022-08-07T05:57:41.949Z,54.72
2022-08-07T06:00:16.628Z,53.32
2022-08-07T06:02:48.265Z,53.36
2022-08-07T06:05:16.101Z,52.81
2022-08-07T06:08:09.183Z,53.31
2022-08-07T06:10:32.053Z,51.96
2022-08-07T06:13:02.282Z,52.21
2022-08-07T06:15:39.068Z,50.94
2022-08-07T06:18:12.356Z,50.11
2022-08-07T06:20:49.604Z,50.88
2022-08-07T06:23:45.812Z,52.02
2022-08-07T06:26:07.668Z,51.43
2022-08-07T06:28:55.483Z,52.29
2022-08-07T06:31:24.310Z,50.41
2022-08-07T06:34:11.098Z,50.80
2022-08-07T06:36:40.977Z,50.21
2022-08-07T06:40:15.952Z,48.17
2022-08-07T06:42:03.475Z,48.88
2022-08-07T06:44:36.627Z,49.16
2022-08-07T06:47:12.552Z,49.87
2022-08-07T06:49:51.721Z,53.37
2022-08-07T06:52:31.325Z,57.30
2022-08-07T06:55:34.101Z,58.51
2022-08-07T06:58:12.620Z,59.47
2022-08-07T07:00:42.389Z,62.23
2022-08-07T07:03:13.746Z,62.26
2022-08-07T07:06:04.187Z,61.85
2022-08-07T07:08:30.211Z,62.06
2022-08-07T07:10:59.111Z,62.74
2022-08-07T07:13:55.638Z,61.31
2022-08-07T07:16:28.959Z,61.58
2022-08-07T07:19:11.401Z,59.62
2022-08-07T07:22:05.454Z,58.34
2022-08-07T07:24:36.211Z,58.90
2022-08-07T07:27:04.786Z,57.52
2022-08-07T07:29:56.258Z,57.73
2022-08-07T07:32:23.780Z,58.61
2022-08-07T07:34:53.643Z,55.97
2022-08-07T07:37:45.337Z,55.86
2022-08-07T07:40:15.311Z,55.16
2022-08-07T07:42:47.127Z,53.28
2022-08-07T07:45:19.547Z,51.14
2022-08-07T07:47:53.262Z,50.42
2022-08-07T07:50:35.718Z,48.77
2022-08-07T07:53:20.483Z,48.86
2022-08-07T07:55:57.729Z,44.71
2022-08-07T07:58:40.316Z,43.75
2022-08-07T08:02:00.961Z,43.72
2022-08-07T08:04:09.572Z,42.77
2022-08-07T08:06:51.973Z,42.21
2022-08-07T08:09:23.288Z,42.07
2022-08-07T08:12:01.604Z,41.31
2022-08-07T08:14:36.437Z,39.88
2022-08-07T08:17:55.361Z,41.12
2022-08-07T08:20:19.385Z,39.97
2022-08-07T08:23:09.409Z,40.31
2022-08-07T08:25:56.762Z,38.82
2022-08-07T08:28:38.172Z,37.04
2022-08-07T08:31:16.423Z,36.18
2022-08-07T08:33:55.720Z,34.31
2022-08-07T08:36:29.551Z,32.61
2022-08-07T08:39:00.014Z,31.69
2022-08-07T08:41:58.750Z,31.51
2022-08-07T08:44:44.268Z,30.06
2022-08-07T08:47:26.505Z,26.89
2022-08-07T08:50:18.977Z,26.14
2022-08-07T08:53:04.933Z,25.28
2022-08-07T08:55:54.649Z,22.19
2022-08-07T08:58:34.765Z,21.58
2022-08-07T09:01:15.023Z,21.50
2022-08-07T09:03:56.682Z,21.34
2022-08-07T09:06:48.017Z,21.75
2022-08-07T09:09:36.586Z,22.07
2022-08-07T09:12:30.681Z,20.95
2022-08-07T09:16:22.880Z,21.36
2022-08-07T09:18:22.446Z,21.04
2022-08-07T09:21:57.749Z,20.25
2022-08-07T09:24:55.017Z,19.90
2022-08-07T09:28:00.483Z,20.20
2022-08-07T09:31:06.537Z,22.96
2022-08-07T09:34:07.812Z,23.89
2022-08-07T09:36:51.378Z,23.08
2022-08-07T09:39:55.594Z,22.79
2022-08-07T09:43:08.648Z,21.66
2022-08-07T09:47:51.123Z,23.76
2022-08-07T09:50:01.948Z,24.45
2022-08-07T09:52:16.092Z,24.47
2022-08-07T09:54:59.365Z,24.35
2022-08-07T09:57:36.684Z,23.71
2022-08-07T10:00:16.557Z,23.02
2022-08-07T10:02:56.302Z,23.72
2022-08-07T10:05:59.418Z,25.31
2022-08-07T10:08:59.543Z,25.20
2022-08-07T10:12:01.259Z,25.63
2022-08-07T10:14:41.983Z,25.39
2022-08-07T10:17:24.281Z,26.80
2022-08-07T10:20:14.649Z,26.79
2022-08-07T10:23:11.827Z,25.41
2022-08-07T10:26:10.712Z,25.36
2022-08-07T10:29:15.819Z,24.63
2022-08-07T10:32:35.729Z,25.35
2022-08-07T10:35:12.414Z,23.65
2022-08-07T10:38:21.478Z,25.15
2022-08-07T10:40:56.554Z,24.99
2022-08-07T10:43:34.111Z,29.32
2022-08-07T10:46:26.744Z,27.03
2022-08-07T10:49:24.722Z,26.42
2022-08-07T10:52:13.302Z,26.48
2022-08-07T10:55:02.065Z,26.75
2022-08-07T10:57:56.391Z,27.64
2022-08-07T11:00:36.823Z,26.78
2022-08-07T11:03:52.829Z,26.42
2022-08-07T11:06:42.074Z,27.39
2022-08-07T11:10:08.919Z,27.03
2022-08-07T11:12:14.581Z,26.65
2022-08-07T11:15:14.599Z,26.06
2022-08-07T11:17:56.953Z,26.10
2022-08-07T11:20:37.803Z,26.24
2022-08-07T11:23:38.425Z,26.29
2022-08-07T11:26:48.114Z,26.41
2022-08-07T11:30:18.471Z,26.96
2022-08-07T11:32:55.657Z,27.56
2022-08-07T11:35:28.137Z,28.79
2022-08-07T11:37:57.847Z,31.66
2022-08-07T11:40:57.924Z,31.76
2022-08-07T11:43:54.398Z,32.17
2022-08-07T11:46:28.595Z,32.18
2022-08-07T11:49:51.155Z,30.34
2022-08-07T11:53:05.176Z,30.39
2022-08-07T11:56:20.453Z,30.10
2022-08-07T11:58:59.892Z,30.31
2022-08-07T12:01:59.660Z,32.09
2022-08-07T12:04:34.142Z,30.50
2022-08-07T12:07:27.527Z,32.69
2022-08-07T12:10:09.412Z,30.93
2022-08-07T12:12:42.856Z,32.24
2022-08-07T12:15:17.260Z,32.22
2022-08-07T12:18:11.441Z,31.20
2022-08-07T12:20:46.352Z,31.09
2022-08-07T12:24:06.329Z,33.04
2022-08-07T12:26:29.896Z,31.59
2022-08-07T12:29:16.132Z,31.67
2022-08-07T12:32:23.952Z,31.33
2022-08-07T12:34:55.704Z,30.65
2022-08-07T12:37:28.249Z,30.88
2022-08-07T12:40:44.908Z,31.06
2022-08-07T12:43:01.796Z,30.79
2022-08-07T12:45:35.634Z,30.45
2022-08-07T12:48:53.038Z,30.64
2022-08-07T12:51:46.397Z,30.79
2022-08-07T12:54:54.731Z,30.75
2022-08-07T12:57:27.266Z,30.45
2022-08-07T13:00:20.969Z,30.56
2022-08-07T13:03:26.857Z,30.08
2022-08-07T13:06:21.588Z,29.83
2022-08-07T13:10:21.437Z,30.44
2022-08-07T13:12:43.276Z,29.47
2022-08-07T13:15:38.530Z,29.65
2022-08-07T13:18:09.008Z,29.98
2022-08-07T13:20:44.625Z,31.45
2022-08-07T13:24:01.751Z,30.49
2022-08-07T13:26:46.253Z,29.92
2022-08-07T13:29:23.920Z,31.37
2022-08-07T13:32:31.333Z,32.71
2022-08-07T13:34:58.461Z,32.76
2022-08-07T13:37:29.581Z,31.74
2022-08-07T13:40:35.354Z,31.04
2022-08-07T13:43:12.026Z,30.37
2022-08-07T13:46:11.577Z,29.94
2022-08-07T13:48:35.087Z,29.42
2022-08-07T13:51:27.397Z,29.22
2022-08-07T13:54:01.975Z,29.38
2022-08-07T13:56:40.701Z,31.85
2022-08-07T13:59:24.467Z,30.46
2022-08-07T14:02:03.513Z,30.98
2022-08-07T14:04:35.631Z,31.81
2022-08-07T14:07:09.505Z,30.54
2022-08-07T14:10:01.297Z,29.98
2022-08-07T14:12:55.698Z,29.41
2022-08-07T14:15:40.555Z,28.45
2022-08-07T14:18:29.008Z,28.25
2022-08-07T14:22:00.582Z,28.50
2022-08-07T14:24:03.777Z,28.67
2022-08-07T14:26:50.380Z,28.66
2022-08-07T14:30:05.561Z,28.92
2022-08-07T14:32:13.234Z,29.47
2022-08-07T14:34:45.482Z,29.51
2022-08-07T14:37:16.987Z,29.84
2022-08-07T14:40:17.846Z,29.15
2022-08-07T14:42:35.562Z,29.81
2022-08-07T14:45:47.111Z,29.92
2022-08-07T14:48:20.395Z,30.03
2022-08-07T14:50:58.597Z,31.42
2022-08-07T14:56:29.526Z,30.97
2022-08-07T14:59:01.246Z,31.23
2022-08-07T15:01:42.864Z,30.20
2022-08-07T15:04:19.070Z,31.93
2022-08-07T15:06:47.581Z,31.81
2022-08-07T15:09:59.647Z,31.06
2022-08-07T15:13:05.887Z,30.05
2022-08-07T15:15:09.276Z,30.27
2022-08-07T15:20:55.172Z,29.66
2022-08-07T15:25:16.168Z,29.86
2022-08-07T15:26:22.616Z,29.42
2022-08-07T15:28:59.456Z,29.21
2022-08-07T15:31:57.765Z,30.59
2022-08-07T15:34:26.254Z,31.30
2022-08-07T15:39:57.740Z,29.81
2022-08-07T15:42:48.263Z,29.96
2022-08-07T15:45:22.628Z,31.48
2022-08-07T15:48:01.297Z,31.49
2022-08-07T15:51:01.425Z,31.23
2022-08-07T15:53:51.730Z,31.14
2022-08-07T15:56:15.674Z,31.62
2022-08-07T15:58:52.180Z,30.65
2022-08-07T16:01:43.751Z,30.30
2022-08-07T16:04:31.343Z,30.18
2022-08-07T16:07:00.412Z,32.48
2022-08-07T16:09:42.241Z,31.57
2022-08-07T16:13:01.115Z,32.03
2022-08-07T16:15:57.285Z,31.73
2022-08-07T16:18:50.109Z,30.99
2022-08-07T16:21:44.113Z,31.86
2022-08-07T16:24:33.682Z,30.89
2022-08-07T16:27:17.826Z,30.82
2022-08-07T16:30:31.509Z,31.77
2022-08-07T16:34:02.722Z,31.48
2022-08-07T16:36:31.504Z,33.36
2022-08-07T16:39:04.988Z,31.53
2022-08-07T16:41:41.485Z,32.30
2022-08-07T16:45:04.117Z,33.02
2022-08-07T16:47:56.635Z,33.81
2022-08-07T16:51:13.383Z,33.19
2022-08-07T16:54:09.708Z,33.23
2022-08-07T16:57:01.667Z,32.87
2022-08-07T16:59:46.356Z,33.70
2022-08-07T17:02:51.588Z,33.34
2022-08-07T17:06:01.526Z,32.97
2022-08-07T17:09:04.276Z,33.26
2022-08-07T17:12:03.934Z,33.33
2022-08-07T17:14:36.223Z,33.52
2022-08-07T17:17:06.830Z,33.97
2022-08-07T17:20:00.738Z,35.06
2022-08-07T17:22:48.630Z,34.20
2022-08-07T17:25:20.162Z,34.28
2022-08-07T17:28:14.021Z,33.41
2022-08-07T17:30:57.981Z,33.67
2022-08-07T17:34:10.194Z,32.67
2022-08-07T17:36:26.017Z,33.43
2022-08-07T17:39:10.069Z,33.54
2022-08-07T17:42:02.187Z,33.36
2022-08-07T17:44:45.646Z,33.01
2022-08-07T17:47:38.046Z,33.35
2022-08-07T17:50:30.498Z,33.53
2022-08-07T17:54:01.474Z,34.08
2022-08-07T17:56:28.651Z,34.55
2022-08-07T17:58:57.315Z,34.63
2022-08-07T18:01:36.260Z,34.78
2022-08-07T18:04:30.830Z,34.74
2022-08-07T18:07:20.881Z,34.93
2022-08-07T18:10:09.921Z,34.79
2022-08-07T18:12:51.282Z,34.85
2022-08-07T18:15:32.737Z,34.94
2022-08-07T18:18:45.569Z,35.03
2022-08-07T18:21:42.212Z,34.87
2022-08-07T18:24:34.479Z,34.89
2022-08-07T18:27:17.374Z,34.90
2022-08-07T18:30:07.818Z,35.34
2022-08-07T18:32:54.742Z,35.28
2022-08-07T18:35:52.027Z,34.41
2022-08-07T18:38:56.754Z,35.28
2022-08-07T18:42:13.065Z,35.90
2022-08-07T18:45:44.467Z,37.66
2022-08-07T18:48:00.759Z,38.25
2022-08-07T18:50:47.115Z,38.62
2022-08-07T18:53:39.231Z,38.65
2022-08-07T18:56:14.068Z,38.67
2022-08-07T18:58:56.769Z,40.44
2022-08-07T19:02:18.384Z,40.24
2022-08-07T19:04:57.712Z,40.03
2022-08-07T19:07:56.865Z,39.70
2022-08-07T19:10:49.657Z,39.28
2022-08-07T19:13:27.475Z,39.24
2022-08-07T19:16:43.537Z,38.97
2022-08-07T19:19:38.907Z,38.13
2022-08-07T19:22:36.123Z,37.48
2022-08-07T19:25:05.475Z,37.68
2022-08-07T19:28:58.224Z,37.63
2022-08-07T19:31:00.840Z,37.52
2022-08-07T19:33:15.635Z,38.17
2022-08-07T19:35:47.109Z,37.38
2022-08-07T19:38:16.659Z,36.99
2022-08-07T19:40:49.891Z,36.38
2022-08-07T19:43:43.990Z,35.96
2022-08-07T19:46:10.033Z,35.77
2022-08-07T19:48:42.265Z,35.53
2022-08-07T19:51:20.446Z,36.01
2022-08-07T19:54:32.104Z,35.98
2022-08-07T19:57:52.182Z,36.50
2022-08-07T19:59:39.949Z,36.01
2022-08-07T20:02:19.835Z,36.61
2022-08-07T20:04:50.087Z,34.75
2022-08-07T20:07:23.412Z,35.72
2022-08-07T20:10:36.538Z,33.79
2022-08-07T20:12:42.157Z,33.37
2022-08-07T20:15:15.843Z,35.17
2022-08-07T20:18:01.557Z,35.67
2022-08-07T20:20:32.894Z,33.95
2022-08-07T20:23:11.060Z,33.13
2022-08-07T20:25:54.474Z,34.03
2022-08-07T20:28:29.664Z,35.54
2022-08-07T20:30:58.250Z,35.47
2022-08-07T20:33:36.701Z,33.76
2022-08-07T20:36:09.796Z,34.94
2022-08-07T20:39:00.124Z,34.38
2022-08-07T20:41:27.709Z,35.18
2022-08-07T20:44:01.235Z,33.94
2022-08-07T20:46:33.480Z,32.82
2022-08-07T20:49:59.540Z,34.06
2022-08-07T20:51:51.185Z,33.07
2022-08-07T20:54:30.174Z,33.17
2022-08-07T20:57:01.861Z,33.70
2022-08-07T21:00:04.458Z,34.39
2022-08-07T21:02:40.127Z,34.79
2022-08-07T21:05:16.368Z,34.54
2022-08-07T21:07:48.982Z,34.40
2022-08-07T21:10:29.617Z,34.19
2022-08-07T21:13:00.790Z,33.72
2022-08-07T21:15:48.044Z,33.45
2022-08-07T21:18:33.306Z,33.09
2022-08-07T21:21:01.102Z,33.21
2022-08-07T21:23:52.286Z,33.07
2022-08-07T21:26:55.986Z,35.69
2022-08-07T21:29:33.713Z,34.01
2022-08-07T21:32:48.103Z,33.92
2022-08-07T21:35:07.995Z,34.24
2022-08-07T21:38:00.293Z,34.31
2022-08-07T21:40:36.050Z,34.50
2022-08-07T21:43:11.052Z,34.55
2022-08-07T21:46:10.554Z,34.13
2022-08-07T21:48:42.639Z,35.54
2022-08-07T21:51:27.471Z,34.88
2022-08-07T21:54:12.306Z,35.12
2022-08-07T21:57:30.793Z,35.19
2022-08-07T22:00:22.780Z,35.44
2022-08-07T22:03:16.837Z,35.44
2022-08-07T22:06:01.091Z,35.25
2022-08-07T22:08:39.316Z,35.42
2022-08-07T22:11:06.758Z,34.78
2022-08-07T22:13:52.275Z,35.10
2022-08-07T22:16:39.162Z,35.25
2022-08-07T22:19:31.056Z,35.31
2022-08-07T22:22:20.775Z,35.43
2022-08-07T22:24:56.964Z,35.50
2022-08-07T22:28:01.256Z,35.90
2022-08-07T22:30:16.156Z,34.91
2022-08-07T22:32:52.828Z,35.13
2022-08-07T22:35:23.350Z,35.85
2022-08-07T22:38:24.344Z,35.27
2022-08-07T22:41:00.027Z,35.47
2022-08-07T22:43:36.752Z,35.20
2022-08-07T22:46:46.915Z,35.73
2022-08-07T22:49:37.698Z,35.48
2022-08-07T22:52:19.533Z,35.73
2022-08-07T22:55:34.657Z,35.80
2022-08-07T22:58:28.014Z,36.27
2022-08-07T23:01:06.187Z,36.06
2022-08-07T23:03:58.530Z,36.66
2022-08-07T23:06:55.030Z,36.84
2022-08-07T23:10:05.321Z,36.05
2022-08-07T23:12:41.674Z,36.49
2022-08-07T23:16:06.591Z,37.12
2022-08-07T23:19:17.579Z,36.85
2022-08-07T23:22:26.806Z,36.34
2022-08-07T23:25:19.114Z,36.74
2022-08-07T23:28:22.647Z,36.73
2022-08-07T23:31:43.000Z,36.70
2022-08-07T23:34:47.220Z,37.23
2022-08-07T23:37:22.461Z,37.00
2022-08-07T23:39:56.258Z,38.60
2022-08-07T23:43:07.632Z,38.76
2022-08-07T23:46:03.772Z,38.79
2022-08-07T23:49:13.688Z,38.69
2022-08-07T23:53:05.382Z,39.05
2022-08-07T23:54:46.855Z,39.18
2022-08-07T23:57:41.209Z,37.92
